Terminal Aerodrome Forecast
Issued by NWS

Home | Current Version | Previous Version | Graphics & Text | Print | Product List | Glossary On
Versions: 1 2 3 4 5 6 7 8 9 10 11 12 13 14 15 16 17 18 19 20 21 22 23 24
000
FTUS43 KLOT 252100 AAA
TAFDPA
TAF AMD
KDPA 252100Z 2521/2618 28015G23KT P6SM SCT035 BKN050
     FM260100 27010KT P6SM FEW050
     FM261500 30015G24KT P6SM BKN050=

USA.gov is the U.S. government's official web portal to all federal, state and local government web resources and services.